Time;durP1;ratioP1;P1;durP2;ratioP2;P2;SDS_P1;SDS_P2;PMS_P1;PMS_P2;Temp;Humidity;BMP_temperature;BMP_pressure;BME280_temperature;BME280_humidity;BME280_pressure;Samples;Min_cycle;Max_cycle;Signal;HPM_P1;HPM_P2
2021/12/22 00:01:59;;;;;;;;;4.60;4.60;;;;;-4.07;86.08;100902.56;5089686;28;8877;-63
2021/12/22 00:04:26;;;;;;;;;3.80;3.00;;;;;-4.08;86.47;100903.44;5089012;28;8862;-63
2021/12/22 00:06:54;;;;;;;;;4.40;4.00;;;;;-4.11;86.10;100901.72;5089636;28;8842;-63
2021/12/22 00:09:22;;;;;;;;;7.00;6.60;;;;;-4.13;86.45;100900.88;5090067;28;8823;-63
2021/12/22 00:11:50;;;;;;;;;10.80;9.60;;;;;-4.13;86.16;100906.06;5091281;28;8871;-63
2021/12/22 00:14:18;;;;;;;;;6.80;6.00;;;;;-4.12;86.15;100907.78;5090002;28;8838;-63
2021/12/22 00:16:45;;;;;;;;;4.00;3.00;;;;;-4.10;86.27;100895.63;5089836;28;8846;-64
2021/12/22 00:19:13;;;;;;;;;4.00;4.00;;;;;-4.08;86.10;100899.13;5088923;28;8915;-63
2021/12/22 00:21:41;;;;;;;;;3.40;3.40;;;;;-4.06;86.32;100899.09;5090321;28;8841;-64
2021/12/22 00:24:09;;;;;;;;;3.20;3.20;;;;;-4.04;86.51;100900.81;5090048;28;8952;-64
2021/12/22 00:26:36;;;;;;;;;3.20;2.20;;;;;-4.02;86.02;100896.47;5090102;28;8841;-63
2021/12/22 00:29:05;;;;;;;;;3.80;3.80;;;;;-4.01;85.98;100895.59;5089304;28;8857;-63
2021/12/22 00:31:40;;;;;;;;;3.00;2.60;;;;;-4.00;85.67;100886.06;5090463;28;8952;-63
2021/12/22 00:34:15;;;;;;;;;4.40;4.00;;;;;-3.99;85.91;100892.97;5090902;28;8845;-64
2021/12/22 00:36:43;;;;;;;;;4.00;4.00;;;;;-3.98;85.99;100895.56;5093607;28;8849;-63
2021/12/22 00:39:11;;;;;;;;;4.00;3.60;;;;;-3.96;85.73;100888.63;5093893;28;8826;-63
2021/12/22 00:41:40;;;;;;;;;1.40;1.40;;;;;-3.98;85.90;100890.38;5092874;28;8858;-63
2021/12/22 00:44:07;;;;;;;;;5.20;5.20;;;;;-3.99;85.72;100899.06;5093721;28;8841;-63
2021/12/22 00:46:36;;;;;;;;;3.00;3.00;;;;;-4.00;85.80;100892.13;5094128;28;8841;-63
2021/12/22 00:49:03;;;;;;;;;6.20;5.60;;;;;-4.00;85.95;100899.94;5093273;28;8829;-63
2021/12/22 00:51:31;;;;;;;;;1.40;1.40;;;;;-3.99;85.91;100898.19;5094256;28;8863;-64
2021/12/22 00:53:59;;;;;;;;;3.60;3.60;;;;;-4.01;85.55;100895.59;5093130;28;8838;-63
2021/12/22 00:56:27;;;;;;;;;3.00;3.00;;;;;-4.02;86.08;100899.09;5092650;28;8845;-63
2021/12/22 00:58:55;;;;;;;;;4.00;4.00;;;;;-4.04;85.65;100889.56;5092728;28;8833;-63
2021/12/22 01:01:23;;;;;;;;;3.60;3.00;;;;;-4.06;86.29;100886.09;5093815;28;8834;-64
2021/12/22 01:03:51;;;;;;;;;5.00;3.60;;;;;-4.08;86.01;100891.31;5094036;28;8860;-64
2021/12/22 01:06:18;;;;;;;;;4.00;4.00;;;;;-4.10;85.86;100895.63;5093637;28;8878;-64
2021/12/22 01:08:46;;;;;;;;;5.20;5.20;;;;;-4.11;85.84;100904.31;5093801;28;8842;-63
2021/12/22 01:11:14;;;;;;;;;5.60;5.60;;;;;-4.13;85.86;100900.03;5092633;28;8852;-64
2021/12/22 01:13:42;;;;;;;;;3.00;3.00;;;;;-4.14;85.75;100898.25;5094051;28;8830;-63
2021/12/22 01:16:09;;;;;;;;;3.00;3.00;;;;;-4.15;85.99;100897.41;5094094;28;8845;-64
2021/12/22 01:18:37;;;;;;;;;4.20;3.40;;;;;-4.16;85.94;100900.91;5092780;28;9534;-63
2021/12/22 01:21:12;;;;;;;;;3.00;3.00;;;;;-4.13;86.11;100900.03;5092644;28;8877;-64
2021/12/22 01:23:58;;;;;;;;;1.00;0.00;;;;;-4.11;85.83;100898.25;5093429;28;8837;-63
2021/12/22 01:26:26;;;;;;;;;4.00;4.00;;;;;-4.13;85.90;100900.88;5093591;28;8841;-63
2021/12/22 01:28:54;;;;;;;;;6.00;6.00;;;;;-4.14;86.35;100903.47;5092956;28;8829;-63
2021/12/22 01:31:21;;;;;;;;;1.80;1.80;;;;;-4.15;85.16;100892.22;5092775;28;9151;-63
2021/12/22 01:33:49;;;;;;;;;3.60;3.60;;;;;-4.16;85.94;100900.00;5093037;28;8892;-63
2021/12/22 01:36:17;;;;;;;;;3.80;3.80;;;;;-4.17;85.67;100904.38;5093744;28;8947;-64
2021/12/22 01:38:44;;;;;;;;;6.00;6.00;;;;;-4.16;85.81;100894.81;5092122;28;8836;-64
2021/12/22 01:41:12;;;;;;;;;4.00;4.00;;;;;-4.17;85.72;100898.28;5093138;28;8844;-63
2021/12/22 01:43:40;;;;;;;;;0.00;0.00;;;;;-4.19;85.75;100897.44;5091783;28;8841;-64
2021/12/22 01:46:31;;;;;;;;;3.40;3.40;;;;;-4.23;85.72;100899.19;5092639;28;8848;-63
2021/12/22 01:49:11;;;;;;;;;4.00;4.00;;;;;-4.25;86.05;100903.50;5092197;28;8856;-64
2021/12/22 01:51:40;;;;;;;;;4.40;4.00;;;;;-4.27;85.98;100897.47;5092413;28;8966;-63
2021/12/22 01:54:07;;;;;;;;;0.40;0.40;;;;;-4.29;86.02;100909.63;5092411;28;9882;-63
2021/12/22 01:56:35;;;;;;;;;3.00;3.00;;;;;-4.28;86.43;100910.50;5092050;28;8849;-63
2021/12/22 01:59:03;;;;;;;;;0.40;0.00;;;;;-4.27;85.97;100912.22;5091135;28;8818;-63
2021/12/22 02:01:31;;;;;;;;;3.40;3.40;;;;;-4.26;86.03;100914.78;5091110;28;8853;-63
2021/12/22 02:03:59;;;;;;;;;3.20;3.00;;;;;-4.24;85.91;100926.06;5091476;28;8956;-63
2021/12/22 02:06:26;;;;;;;;;0.60;0.60;;;;;-4.23;86.34;100912.19;5092192;28;8960;-63
2021/12/22 02:08:55;;;;;;;;;4.80;4.00;;;;;-4.21;86.32;100914.75;5091477;28;8843;-64
2021/12/22 02:11:22;;;;;;;;;4.40;4.00;;;;;-4.16;85.93;100913.00;5092782;28;8841;-63
2021/12/22 02:13:56;;;;;;;;;2.60;2.20;;;;;-4.11;86.42;100919.91;5090626;28;8869;-64
2021/12/22 02:16:27;;;;;;;;;4.80;3.60;;;;;-4.06;86.13;100918.16;5092453;28;8842;-64
2021/12/22 02:18:55;;;;;;;;;3.40;3.20;;;;;-4.02;85.87;100919.00;5091390;28;8842;-64
2021/12/22 02:21:25;;;;;;;;;6.40;6.00;;;;;-4.02;86.27;100917.28;5092088;28;8846;-64
2021/12/22 02:23:53;;;;;;;;;1.80;1.80;;;;;-4.03;85.36;100912.94;5091915;28;8848;-64
2021/12/22 02:26:25;;;;;;;;;3.00;3.00;;;;;-4.03;85.85;100915.53;5090699;28;8834;-64
2021/12/22 02:28:59;;;;;;;;;3.00;3.00;;;;;-4.04;86.01;100908.59;5090558;28;8828;-65
2021/12/22 02:31:27;;;;;;;;;3.00;3.00;;;;;-4.06;85.88;100902.56;5091860;28;8846;-64
2021/12/22 02:33:54;;;;;;;;;3.80;3.40;;;;;-4.10;85.68;100908.63;5091580;28;8830;-64
2021/12/22 02:36:24;;;;;;;;;4.00;3.00;;;;;-4.14;85.56;100903.47;5091456;28;8846;-65
2021/12/22 02:38:52;;;;;;;;;4.00;3.80;;;;;-4.19;85.56;100897.44;5091360;28;8848;-64
2021/12/22 02:41:19;;;;;;;;;2.60;2.60;;;;;-4.25;85.68;100906.13;5090651;28;8980;-64
2021/12/22 02:43:51;;;;;;;;;1.80;1.80;;;;;-4.32;85.35;100913.97;5099770;28;9619;-64
2021/12/22 02:46:19;;;;;;;;;4.00;3.20;;;;;-4.37;85.76;100903.59;5096089;28;8876;-65
2021/12/22 02:48:47;;;;;;;;;0.60;0.60;;;;;-4.43;85.67;100906.22;5091868;28;8834;-65
2021/12/22 02:51:14;;;;;;;;;1.60;0.80;;;;;-4.47;85.19;100903.63;5090438;28;8886;-65
2021/12/22 02:53:46;;;;;;;;;0.00;0.00;;;;;-4.51;85.79;100907.97;5091769;28;8869;-65
2021/12/22 02:56:30;;;;;;;;;3.80;3.20;;;;;-4.56;86.07;100901.09;5090171;28;9110;-65
2021/12/22 02:59:09;;;;;;;;;4.80;3.60;;;;;-4.59;86.02;100901.94;5090922;28;8842;-65
2021/12/22 03:02:12;;;;;;;;;1.00;1.00;;;;;-4.62;85.40;100894.19;5089957;28;8836;-65
2021/12/22 03:04:50;;;;;;;;;3.00;3.00;;;;;-4.65;86.45;100898.53;5091785;28;8899;-65
2021/12/22 03:07:19;;;;;;;;;1.00;1.00;;;;;-4.67;85.95;100890.72;5090752;28;8849;-65
2021/12/22 03:09:46;;;;;;;;;0.00;0.00;;;;;-4.67;85.88;100884.66;5091716;28;8837;-65
2021/12/22 03:12:15;;;;;;;;;1.40;1.00;;;;;-4.71;86.15;100888.16;5090462;28;8818;-65
2021/12/22 03:14:42;;;;;;;;;1.80;1.80;;;;;-4.75;85.78;100889.88;5090509;28;8964;-65
2021/12/22 03:17:10;;;;;;;;;1.00;1.00;;;;;-4.76;85.96;100889.88;5090709;28;8846;-65
2021/12/22 03:19:38;;;;;;;;;1.40;1.40;;;;;-4.77;86.16;100886.44;5090727;28;8842;-65
2021/12/22 03:22:09;;;;;;;;;3.80;3.00;;;;;-4.76;86.28;100884.69;5090057;28;9511;-65
2021/12/22 03:24:37;;;;;;;;;1.00;1.00;;;;;-4.75;86.17;100886.41;5090084;28;9488;-65
2021/12/22 03:27:07;;;;;;;;;0.00;0.00;;;;;-4.76;86.20;100882.97;5091172;28;8910;-64
2021/12/22 03:29:34;;;;;;;;;4.00;3.00;;;;;-4.75;86.09;100891.59;5090726;28;8903;-65
2021/12/22 03:32:02;;;;;;;;;1.80;1.00;;;;;-4.75;86.13;100887.28;5090082;28;8822;-65
2021/12/22 03:34:30;;;;;;;;;3.60;3.60;;;;;-4.74;86.01;100883.81;5089617;28;8886;-65
2021/12/22 03:36:58;;;;;;;;;2.60;1.20;;;;;-4.72;86.37;100887.28;5091167;28;8857;-64
2021/12/22 03:39:27;;;;;;;;;0.40;0.40;;;;;-4.68;86.15;100880.34;5090224;28;8846;-65
2021/12/22 03:41:55;;;;;;;;;2.80;2.80;;;;;-4.64;86.02;100879.47;5090023;28;8903;-65
2021/12/22 03:44:23;;;;;;;;;1.00;1.00;;;;;-4.63;85.98;100879.44;5090750;28;8834;-65
2021/12/22 03:46:51;;;;;;;;;0.00;0.00;;;;;-4.61;85.98;100876.84;5090558;28;8856;-65
2021/12/22 03:49:18;;;;;;;;;3.60;3.60;;;;;-4.60;86.20;100866.47;5090586;28;8830;-65
2021/12/22 03:51:46;;;;;;;;;3.00;3.00;;;;;-4.60;85.80;100865.56;5090161;28;9543;-65
2021/12/22 03:54:14;;;;;;;;;0.20;0.00;;;;;-4.59;85.87;100867.31;5090685;28;8861;-65
2021/12/22 03:56:41;;;;;;;;;3.20;3.20;;;;;-4.60;86.05;100876.84;5089429;28;8842;-65
2021/12/22 03:59:09;;;;;;;;;2.60;1.00;;;;;-4.60;85.79;100884.63;5090385;28;8876;-65
2021/12/22 04:01:37;;;;;;;;;0.00;0.00;;;;;-4.61;85.72;100882.91;5090202;28;8838;-65
2021/12/22 04:04:11;;;;;;;;;3.00;1.00;;;;;-4.61;85.92;100890.72;5090348;28;9785;-65
2021/12/22 04:06:39;;;;;;;;;0.00;0.00;;;;;-4.63;85.86;100881.19;5091263;28;8842;-65
2021/12/22 04:09:07;;;;;;;;;1.00;1.00;;;;;-4.65;85.59;100877.75;5091818;28;8838;-65
2021/12/22 04:11:35;;;;;;;;;2.60;2.60;;;;;-4.67;85.72;100885.53;5093689;28;8837;-64
2021/12/22 04:14:03;;;;;;;;;2.60;2.60;;;;;-4.69;85.78;100869.09;5094369;28;8842;-64
2021/12/22 04:16:31;;;;;;;;;3.00;3.00;;;;;-4.67;86.05;100869.94;5094124;28;8842;-65
2021/12/22 04:18:58;;;;;;;;;0.80;0.80;;;;;-4.71;85.48;100878.59;5093978;28;8864;-65
2021/12/22 04:21:26;;;;;;;;;1.00;1.00;;;;;-4.73;85.54;100882.94;5094121;28;8866;-65
2021/12/22 04:23:54;;;;;;;;;0.60;0.60;;;;;-4.77;85.37;100878.66;5093335;28;8849;-65
2021/12/22 04:26:22;;;;;;;;;0.40;0.40;;;;;-4.77;86.04;100885.56;5093576;28;8854;-65
2021/12/22 04:28:49;;;;;;;;;0.40;0.40;;;;;-4.79;85.58;100880.38;5093375;28;8866;-65
2021/12/22 04:31:17;;;;;;;;;0.60;0.60;;;;;-4.80;85.94;100880.41;5093232;28;8856;-65
2021/12/22 04:33:45;;;;;;;;;0.20;0.20;;;;;-4.81;85.81;100874.31;5092166;28;8862;-65
2021/12/22 04:36:13;;;;;;;;;1.00;1.00;;;;;-4.79;86.02;100882.13;5093054;28;9811;-64
2021/12/22 04:38:40;;;;;;;;;2.20;1.40;;;;;-4.79;85.75;100888.16;5074988;28;8858;-65
2021/12/22 04:41:08;;;;;;;;;1.00;1.00;;;;;-4.78;85.90;100886.44;5093699;28;8853;-64
2021/12/22 04:43:36;;;;;;;;;0.00;0.00;;;;;-4.78;85.78;100878.66;5093729;28;8830;-64
2021/12/22 04:46:04;;;;;;;;;0.00;0.00;;;;;-4.79;85.54;100874.31;5093138;28;8856;-64
2021/12/22 04:48:35;;;;;;;;;2.80;2.20;;;;;-4.80;85.88;100880.41;5094099;28;8834;-64
2021/12/22 04:51:11;;;;;;;;;0.00;0.00;;;;;-4.83;85.68;100881.25;5092563;28;8872;-64
2021/12/22 04:53:48;;;;;;;;;1.00;1.00;;;;;-4.86;85.53;100883.84;5072458;28;8851;-64
2021/12/22 04:56:16;;;;;;;;;3.40;2.20;;;;;-4.90;85.58;100889.94;5073643;28;8828;-64
2021/12/22 04:58:43;;;;;;;;;3.00;1.80;;;;;-4.92;85.71;100896.88;5072854;28;8852;-65
2021/12/22 05:01:11;;;;;;;;;0.00;0.00;;;;;-4.92;86.05;100896.00;5072748;28;8966;-64
2021/12/22 05:03:39;;;;;;;;;0.00;0.00;;;;;-4.93;85.97;100895.13;5093768;28;9660;-64
2021/12/22 05:06:07;;;;;;;;;1.00;1.00;;;;;-4.93;86.21;100902.91;5093173;28;9711;-64
2021/12/22 05:08:35;;;;;;;;;1.80;1.80;;;;;-4.94;85.68;100900.34;5092942;28;8844;-64
2021/12/22 05:11:02;;;;;;;;;0.00;0.00;;;;;-4.94;85.94;100898.59;5093578;28;8842;-64
2021/12/22 05:13:33;;;;;;;;;2.60;2.60;;;;;-4.95;85.78;100894.25;5092994;28;8830;-64
2021/12/22 05:16:03;;;;;;;;;1.80;1.40;;;;;-4.93;85.64;100892.53;5093928;28;8842;-64
2021/12/22 05:18:49;;;;;;;;;0.20;0.20;;;;;-4.95;85.84;100891.66;5091912;28;9668;-65
2021/12/22 05:21:17;;;;;;;;;3.00;3.00;;;;;-4.97;85.70;100885.63;5093511;28;8867;-65
2021/12/22 05:23:45;;;;;;;;;1.00;1.00;;;;;-4.99;85.72;100892.56;5071420;28;9510;-65
2021/12/22 05:26:12;;;;;;;;;0.40;0.20;;;;;-5.02;85.60;100902.94;5071955;28;8872;-64
2021/12/22 05:28:40;;;;;;;;;2.60;2.60;;;;;-5.04;85.89;100904.69;5072791;28;9139;-64
2021/12/22 05:31:08;;;;;;;;;1.00;1.00;;;;;-5.03;85.50;100905.56;5072277;28;8836;-64
2021/12/22 05:33:36;;;;;;;;;0.00;0.00;;;;;-5.07;85.55;100899.50;5090294;28;8903;-64
2021/12/22 05:36:03;;;;;;;;;0.00;0.00;;;;;-5.08;85.28;100900.34;5092842;28;8834;-63
2021/12/22 05:38:31;;;;;;;;;0.20;0.20;;;;;-5.08;85.54;100897.75;5092699;28;8850;-63
2021/12/22 05:40:58;;;;;;;;;0.40;0.40;;;;;-5.08;85.78;100889.13;5092512;28;8830;-63
2021/12/22 05:43:28;;;;;;;;;0.40;0.40;;;;;-5.08;85.66;100891.72;5090920;28;8852;-64
2021/12/22 05:45:55;;;;;;;;;0.60;0.60;;;;;-5.06;85.57;100889.97;5091698;28;8940;-64
2021/12/22 05:48:23;;;;;;;;;7.00;7.00;;;;;-5.05;85.82;100886.50;5092238;28;8842;-63
2021/12/22 05:50:53;;;;;;;;;11.25;11.25;;;;;-5.08;85.76;100866.59;5091691;28;8842;-64
2021/12/22 05:53:21;;;;;;;;;4.00;4.00;;;;;-5.10;85.70;100878.72;5091534;28;8873;-63
2021/12/22 05:55:49;;;;;;;;;6.25;6.25;;;;;-5.10;85.47;100868.34;5091222;28;8850;-64
2021/12/22 05:58:17;;;;;;;;;10.50;10.00;;;;;-5.09;85.74;100866.63;5090456;28;8853;-64
2021/12/22 06:00:44;;;;;;;;;7.50;7.00;;;;;-5.08;85.59;100857.97;5090116;28;8830;-64
2021/12/22 06:03:12;;;;;;;;;7.40;7.40;;;;;-5.09;85.69;100851.91;5089147;28;8850;-64
2021/12/22 06:05:40;;;;;;;;;7.00;7.00;;;;;-5.10;85.84;100857.97;5089526;28;8858;-64
2021/12/22 06:08:08;;;;;;;;;7.00;6.00;;;;;-5.10;85.90;100844.97;5087179;28;8846;-64
2021/12/22 06:10:35;;;;;;;;;4.00;4.00;;;;;-5.08;85.74;100845.84;5087485;28;8868;-64
2021/12/22 06:13:03;;;;;;;;;6.00;6.00;;;;;-5.08;85.75;100853.63;5087736;28;9555;-64
2021/12/22 06:15:31;;;;;;;;;8.00;7.80;;;;;-5.08;85.40;100857.97;5088642;28;8964;-64
2021/12/22 06:18:00;;;;;;;;;0.00;0.00;;;;;-5.07;85.85;100859.69;5088258;28;8838;-64
2021/12/22 06:20:28;;;;;;;;;4.40;3.20;;;;;-5.06;85.82;100853.63;5088126;28;8825;-64
2021/12/22 06:22:55;;;;;;;;;1.00;1.00;;;;;-5.05;86.13;100853.63;5088067;28;8876;-64
2021/12/22 06:25:26;;;;;;;;;1.00;1.00;;;;;-5.04;85.88;100851.88;5088200;28;8860;-64
2021/12/22 06:27:54;;;;;;;;;3.00;3.00;;;;;-5.03;85.60;100853.63;5087144;28;8837;-64
2021/12/22 06:30:22;;;;;;;;;3.20;3.20;;;;;-4.99;85.47;100857.94;5085768;28;8876;-64
2021/12/22 06:32:49;;;;;;;;;4.00;3.40;;;;;-4.96;85.70;100856.19;5085945;28;8878;-64
2021/12/22 06:35:17;;;;;;;;;1.00;1.00;;;;;-4.91;85.01;100854.47;5085746;28;8870;-64
2021/12/22 06:37:45;;;;;;;;;1.00;1.00;;;;;-4.87;85.66;100845.78;5085250;28;8884;-65
2021/12/22 06:40:13;;;;;;;;;2.60;2.20;;;;;-4.85;85.38;100854.44;5084800;28;9236;-64
2021/12/22 06:42:41;;;;;;;;;1.00;1.00;;;;;-4.85;85.34;100857.03;5083947;28;8834;-64
2021/12/22 06:45:08;;;;;;;;;0.80;0.80;;;;;-4.84;85.21;100856.16;5084643;28;8863;-63
2021/12/22 06:47:36;;;;;;;;;1.40;1.40;;;;;-4.84;85.46;100856.16;5083163;28;8865;-64
2021/12/22 06:50:03;;;;;;;;;1.00;1.00;;;;;-4.84;85.63;100855.28;5083953;28;8856;-64
2021/12/22 06:52:31;;;;;;;;;0.20;0.20;;;;;-4.80;85.60;100857.88;5081467;28;9099;-64
2021/12/22 06:54:59;;;;;;;;;0.80;0.80;;;;;-4.80;85.27;100857.88;5081911;28;8868;-64
2021/12/22 06:57:29;;;;;;;;;4.00;4.00;;;;;-4.82;85.41;100854.41;5080268;28;9528;-64
2021/12/22 06:59:58;;;;;;;;;1.80;1.80;;;;;-4.84;85.17;100850.97;5080708;28;8880;-63
2021/12/22 07:02:26;;;;;;;;;3.00;2.60;;;;;-4.84;85.35;100850.97;5078536;28;8875;-64
2021/12/22 07:04:54;;;;;;;;;1.40;1.00;;;;;-4.81;85.33;100850.06;5078159;28;8870;-64
2021/12/22 07:07:22;;;;;;;;;1.40;1.40;;;;;-4.79;85.23;100844.00;5079327;28;8826;-64
2021/12/22 07:09:50;;;;;;;;;1.80;1.80;;;;;-4.77;85.42;100844.91;5078398;28;9137;-64
2021/12/22 07:12:17;;;;;;;;;1.40;0.80;;;;;-4.76;85.72;100844.03;5081032;28;8842;-64
2021/12/22 07:14:45;;;;;;;;;1.00;1.00;;;;;-4.76;85.28;100844.03;5079754;28;8931;-64
2021/12/22 07:17:13;;;;;;;;;1.80;1.80;;;;;-4.76;85.55;100836.22;5075317;28;9235;-64
2021/12/22 07:19:41;;;;;;;;;0.60;0.60;;;;;-4.73;85.44;100830.16;5078158;28;8954;-64
2021/12/22 07:22:08;;;;;;;;;2.20;2.20;;;;;-4.70;85.36;100828.41;5076824;28;8861;-64
2021/12/22 07:24:36;;;;;;;;;2.20;2.20;;;;;-4.66;85.24;100834.44;5076584;28;8850;-63
2021/12/22 07:27:04;;;;;;;;;3.00;3.00;;;;;-4.63;85.34;100830.09;5077031;28;9201;-64
2021/12/22 07:29:31;;;;;;;;;0.60;0.60;;;;;-4.63;84.95;100830.09;5079618;28;9115;-64
2021/12/22 07:31:59;;;;;;;;;2.20;1.00;;;;;-4.63;84.92;100819.69;5077135;28;8980;-64
2021/12/22 07:34:27;;;;;;;;;0.80;0.80;;;;;-4.63;84.77;100819.69;5078179;28;8866;-64
2021/12/22 07:36:55;;;;;;;;;0.60;0.60;;;;;-4.65;84.66;100816.25;5077653;28;8866;-64
2021/12/22 07:39:23;;;;;;;;;0.00;0.00;;;;;-4.69;85.29;100819.75;5076357;28;8850;-64
2021/12/22 07:41:50;;;;;;;;;0.20;0.20;;;;;-4.72;85.11;100819.75;5076403;28;9268;-64
2021/12/22 07:44:18;;;;;;;;;1.00;1.00;;;;;-4.75;85.21;100830.16;5086008;28;8861;-63
2021/12/22 07:46:46;;;;;;;;;0.00;0.00;;;;;-4.76;85.01;100817.19;5083708;28;8849;-64
2021/12/22 07:49:13;;;;;;;;;2.60;1.00;;;;;-4.74;85.30;100816.31;5086766;28;8879;-64
2021/12/22 07:51:41;;;;;;;;;1.00;1.00;;;;;-4.70;85.46;100811.97;5085384;28;8834;-64
2021/12/22 07:54:10;;;;;;;;;1.00;1.00;;;;;-4.64;85.51;100812.78;5083492;28;8834;-63
2021/12/22 07:56:38;;;;;;;;;0.00;0.00;;;;;-4.59;85.31;100816.22;5083662;28;8858;-63
2021/12/22 07:59:06;;;;;;;;;3.00;3.00;;;;;-4.55;85.10;100817.06;5086197;28;8981;-63
2021/12/22 08:01:35;;;;;;;;;0.80;0.80;;;;;-4.53;85.03;100826.59;5084785;28;8927;-64
2021/12/22 08:04:03;;;;;;;;;0.00;0.00;;;;;-4.45;85.00;100819.63;5086366;28;8888;-63
2021/12/22 08:06:31;;;;;;;;;0.40;0.40;;;;;-4.39;85.33;100823.91;5082114;28;8868;-63
2021/12/22 08:08:58;;;;;;;;;2.40;2.40;;;;;-4.31;84.99;100814.34;5086419;28;8880;-64
2021/12/22 08:11:26;;;;;;;;;3.40;3.40;;;;;-4.26;84.54;100820.38;5082570;28;8853;-64
2021/12/22 08:13:54;;;;;;;;;1.00;1.00;;;;;-4.21;84.74;100827.25;5084179;28;9145;-64
2021/12/22 08:16:22;;;;;;;;;1.40;1.40;;;;;-4.16;85.08;100828.09;5080678;28;8854;-64
2021/12/22 08:18:50;;;;;;;;;1.00;1.00;;;;;-4.12;84.64;100829.81;5081675;28;8992;-64
2021/12/22 08:21:17;;;;;;;;;3.00;1.00;;;;;-4.08;84.65;100830.63;5083837;28;8857;-64
2021/12/22 08:23:45;;;;;;;;;1.00;1.00;;;;;-4.04;84.62;100838.41;5082526;28;8867;-63
2021/12/22 08:26:13;;;;;;;;;3.00;3.00;;;;;-4.00;85.12;100834.94;5082329;28;8852;-64
2021/12/22 08:28:40;;;;;;;;;5.60;3.60;;;;;-3.94;84.60;100839.22;5082185;28;8847;-64
2021/12/22 08:31:10;;;;;;;;;0.60;0.60;;;;;-3.92;84.21;100833.13;5081103;28;8850;-64
2021/12/22 08:33:43;;;;;;;;;5.20;3.40;;;;;-3.86;84.49;100830.50;5080849;28;9187;-64
2021/12/22 08:39:00;;;;;;;;;2.20;1.00;;;;;-3.71;84.68;100822.56;5085216;28;8887;-64
2021/12/22 08:41:28;;;;;;;;;3.80;3.40;;;;;-3.66;84.52;100816.44;5082209;28;8983;-64
2021/12/22 08:43:56;;;;;;;;;1.00;1.00;;;;;-3.60;84.74;100813.78;5085220;28;8841;-64
2021/12/22 08:46:24;;;;;;;;;3.80;3.80;;;;;-3.53;84.13;100806.78;5083449;28;9167;-64
2021/12/22 08:48:52;;;;;;;;;3.00;1.00;;;;;-3.46;84.51;100808.44;5082724;28;8842;-64
2021/12/22 08:51:21;;;;;;;;;1.40;1.40;;;;;-3.37;83.94;100818.75;5080962;28;8872;-64
2021/12/22 08:53:49;;;;;;;;;3.00;1.40;;;;;-3.30;84.49;100817.81;5078412;28;8853;-64
2021/12/22 08:56:16;;;;;;;;;2.20;1.00;;;;;-3.22;84.23;100816.88;5080144;28;9168;-64
2021/12/22 08:58:44;;;;;;;;;0.00;0.00;;;;;-3.14;83.78;100825.47;5076422;28;8850;-64
2021/12/22 09:01:12;;;;;;;;;1.00;1.00;;;;;-3.06;83.57;100814.97;5073365;28;8996;-64
2021/12/22 09:03:40;;;;;;;;;1.80;1.80;;;;;-2.97;83.60;100800.09;5077264;28;8850;-65
2021/12/22 09:06:09;;;;;;;;;6.60;6.00;;;;;-2.86;83.57;100797.38;5077333;28;8854;-65
2021/12/22 09:08:36;;;;;;;;;6.40;6.40;;;;;-2.76;83.20;100807.66;5079340;28;8889;-65
2021/12/22 09:11:04;;;;;;;;;6.80;6.80;;;;;-2.65;83.31;100804.94;5079093;28;9692;-64
2021/12/22 09:13:35;;;;;;;;;1.40;1.40;;;;;-2.54;83.20;100800.41;5080741;28;9135;-64
2021/12/22 09:16:03;;;;;;;;;8.60;8.20;;;;;-2.44;83.18;100804.66;5078694;28;8865;-65
2021/12/22 09:18:31;;;;;;;;;3.80;3.80;;;;;-2.33;82.94;100798.41;5078171;28;9108;-65
2021/12/22 09:20:58;;;;;;;;;9.00;7.60;;;;;-2.22;83.03;100798.22;5076748;28;8853;-65
2021/12/22 09:23:26;;;;;;;;;14.60;14.60;;;;;-2.08;83.00;100801.47;5079437;28;8968;-65
2021/12/22 09:25:54;;;;;;;;;10.20;10.20;;;;;-1.95;83.03;100798.69;5077900;28;8838;-65
2021/12/22 09:28:21;;;;;;;;;8.00;6.00;;;;;-1.85;82.60;100788.94;5074836;28;8868;-65
2021/12/22 09:30:49;;;;;;;;;6.40;6.40;;;;;-1.75;82.85;100795.75;5077752;28;8891;-64
2021/12/22 09:33:18;;;;;;;;;7.00;6.00;;;;;-1.66;82.64;100791.22;5077120;28;8846;-64
2021/12/22 09:35:46;;;;;;;;;7.00;6.00;;;;;-1.55;82.41;100798.88;5075483;28;8874;-65
2021/12/22 09:38:15;;;;;;;;;6.40;4.80;;;;;-1.44;82.72;100796.94;5075489;28;9353;-64
2021/12/22 09:40:43;;;;;;;;;7.00;7.00;;;;;-1.33;82.00;100781.94;5075322;28;8854;-64
2021/12/22 09:43:10;;;;;;;;;2.60;1.80;;;;;-1.20;82.02;100791.28;5077480;28;8849;-64
2021/12/22 09:45:43;;;;;;;;;5.60;4.00;;;;;-1.08;81.79;100786.66;5073178;28;8849;-64
2021/12/22 09:48:28;;;;;;;;;5.80;5.80;;;;;-0.95;82.02;100774.22;5076764;28;9278;-64
2021/12/22 09:52:16;;;;;;;;;8.20;8.20;;;;;-0.79;82.09;100784.34;5077520;28;8838;-64
2021/12/22 09:53:44;;;;;;;;;5.40;5.20;;;;;-0.67;81.17;100778.88;5078207;28;8838;-64
2021/12/22 09:56:11;;;;;;;;;4.40;3.20;;;;;-0.54;81.81;100774.25;5080362;28;8860;-64
2021/12/22 09:58:39;;;;;;;;;3.20;3.00;;;;;-0.34;81.69;100780.75;5080748;28;8980;-64
2021/12/22 10:01:07;;;;;;;;;5.80;5.80;;;;;-0.13;80.71;100775.88;5078243;28;8834;-64
2021/12/22 10:03:35;;;;;;;;;6.20;6.20;;;;;0.10;80.89;100767.50;5079766;28;8885;-64
2021/12/22 10:06:02;;;;;;;;;5.60;4.00;;;;;0.41;79.96;100764.06;5078811;28;8907;-62
2021/12/22 10:08:30;;;;;;;;;6.20;6.00;;;;;0.80;79.37;100767.38;5077594;28;8846;-63
2021/12/22 10:10:58;;;;;;;;;6.00;6.00;;;;;1.16;78.93;100761.97;5078809;28;9122;-62
2021/12/22 10:13:26;;;;;;;;;4.60;3.80;;;;;1.58;79.01;100758.09;5076318;28;9609;-62
2021/12/22 10:15:54;;;;;;;;;2.20;2.20;;;;;2.10;77.99;100759.94;5076084;28;9505;-62
2021/12/22 10:18:22;;;;;;;;;2.40;2.40;;;;;2.62;77.22;100754.66;5074587;28;8854;-63
2021/12/22 10:20:49;;;;;;;;;0.60;0.00;;;;;3.17;76.46;100757.91;5074478;28;8837;-62
2021/12/22 10:23:17;;;;;;;;;4.80;4.40;;;;;3.51;76.29;100741.72;5077416;28;8861;-63
2021/12/22 10:25:45;;;;;;;;;3.80;3.20;;;;;3.78;75.87;100746.78;5077466;28;8874;-63
2021/12/22 10:28:18;;;;;;;;;6.40;6.40;;;;;3.90;76.16;100747.13;5074969;28;8893;-63
2021/12/22 10:30:45;;;;;;;;;6.80;6.00;;;;;3.99;75.50;100748.56;5077119;28;8897;-63
2021/12/22 10:33:14;;;;;;;;;6.80;6.40;;;;;4.12;76.24;100755.91;5075842;28;8875;-63
2021/12/22 10:35:42;;;;;;;;;5.20;5.20;;;;;4.40;75.53;100755.66;5076584;28;9146;-63
2021/12/22 10:38:10;;;;;;;;;6.60;6.00;;;;;4.70;75.19;100752.56;5074821;28;9542;-63
2021/12/22 10:40:38;;;;;;;;;6.40;6.00;;;;;4.80;75.13;100742.47;5073331;28;8850;-63
2021/12/22 10:43:06;;;;;;;;;9.00;9.00;;;;;4.97;75.28;100735.53;5077143;28;9134;-65
2021/12/22 10:45:34;;;;;;;;;7.60;6.20;;;;;5.42;74.56;100729.97;5076826;28;9131;-65
2021/12/22 10:50:47;;;;;;;;;9.40;7.80;;;;;6.01;73.46;100717.44;5076310;28;8857;-64
2021/12/22 10:53:15;;;;;;;;;6.00;6.00;;;;;5.89;73.88;100721.53;5079630;28;9146;-64
2021/12/22 10:55:43;;;;;;;;;6.40;5.20;;;;;5.95;74.24;100720.38;5074749;28;8871;-63
2021/12/22 10:58:11;;;;;;;;;7.00;7.00;;;;;6.26;73.67;100717.94;5076293;28;8881;-63
2021/12/22 11:00:39;;;;;;;;;14.20;14.20;;;;;6.18;73.90;100718.34;5072692;28;8850;-63
2021/12/22 11:03:07;;;;;;;;;12.00;12.00;;;;;5.94;74.78;100710.75;5073815;28;9882;-63
2021/12/22 11:05:35;;;;;;;;;13.40;12.20;;;;;6.03;74.87;100712.94;5076357;28;8858;-63
2021/12/22 11:08:06;;;;;;;;;5.60;4.40;;;;;6.20;73.96;100712.97;5076964;28;9566;-62
2021/12/22 11:10:34;;;;;;;;;9.00;9.00;;;;;6.33;74.25;100709.66;5074790;28;9143;-62
2021/12/22 11:13:02;;;;;;;;;9.00;9.00;;;;;6.53;73.77;100714.78;5075189;28;8850;-62
2021/12/22 11:15:30;;;;;;;;;10.40;10.00;;;;;6.76;73.12;100703.03;5070868;28;9130;-62
2021/12/22 11:17:58;;;;;;;;;4.00;3.40;;;;;6.79;72.86;100697.56;5074549;28;9126;-62
2021/12/22 11:20:25;;;;;;;;;3.20;3.00;;;;;6.64;73.55;100682.47;5072427;28;8996;-62
2021/12/22 11:22:58;;;;;;;;;6.00;4.80;;;;;6.52;74.00;100683.13;5076532;28;9611;-62
2021/12/22 11:25:26;;;;;;;;;8.40;8.40;;;;;6.54;74.04;100675.97;5074500;28;8850;-62
2021/12/22 11:27:54;;;;;;;;;9.20;9.20;;;;;6.65;74.19;100671.81;5074305;28;8984;-62
2021/12/22 11:30:22;;;;;;;;;8.20;8.20;;;;;6.71;73.51;100671.50;5073723;28;8849;-63
2021/12/22 11:32:51;;;;;;;;;12.20;11.20;;;;;6.57;74.18;100676.66;5072400;28;8834;-62
2021/12/22 11:35:19;;;;;;;;;11.40;9.40;;;;;6.49;74.25;100677.97;5070635;28;8870;-62
2021/12/22 11:37:47;;;;;;;;;12.00;12.00;;;;;6.48;74.66;100682.41;5070855;28;8853;-62
2021/12/22 11:40:21;;;;;;;;;11.60;10.40;;;;;6.60;74.08;100673.84;5070937;28;8981;-62
2021/12/22 11:42:49;;;;;;;;;9.40;7.40;;;;;6.67;74.18;100674.41;5071398;28;8830;-62
2021/12/22 11:45:16;;;;;;;;;12.20;9.00;;;;;6.62;74.11;100673.75;5072751;28;9132;-62
2021/12/22 11:47:44;;;;;;;;;7.40;6.00;;;;;6.43;74.75;100667.69;5070312;28;8846;-62